createdAt,value
2019-02-11T00:01:32.981Z,16.50
2019-02-11T00:04:00.222Z,20.07
2019-02-11T00:06:27.423Z,17.73
2019-02-11T00:08:54.676Z,18.23
2019-02-11T00:11:21.882Z,14.80
2019-02-11T00:13:49.122Z,17.17
2019-02-11T00:16:16.385Z,10.30
2019-02-11T00:18:43.617Z,15.37
2019-02-11T00:21:10.813Z,12.53
2019-02-11T00:23:38.069Z,13.17
2019-02-11T00:26:05.276Z,7.57
2019-02-11T00:28:32.492Z,16.87
2019-02-11T00:30:59.726Z,13.30
2019-02-11T00:33:26.987Z,11.57
2019-02-11T00:35:54.195Z,13.03
2019-02-11T00:38:21.478Z,12.40
2019-02-11T00:40:48.723Z,13.70
2019-02-11T00:43:19.184Z,13.17
2019-02-11T00:45:45.197Z,13.93
2019-02-11T00:48:12.427Z,15.67
2019-02-11T00:50:39.625Z,14.30
2019-02-11T00:53:07.256Z,14.10
2019-02-11T00:55:34.575Z,18.20
2019-02-11T00:58:01.843Z,15.73
2019-02-11T01:00:29.148Z,13.60
2019-02-11T01:02:56.373Z,13.70
2019-02-11T01:05:23.644Z,12.70
2019-02-11T01:07:50.873Z,13.03
2019-02-11T01:10:18.080Z,14.10
2019-02-11T01:12:45.336Z,11.97
2019-02-11T01:15:12.752Z,12.57
2019-02-11T01:17:39.992Z,12.00
2019-02-11T01:20:09.267Z,12.40
2019-02-11T01:22:36.477Z,15.37
2019-02-11T01:25:04.300Z,15.37
2019-02-11T01:27:31.521Z,16.07
2019-02-11T01:29:58.735Z,16.30
2019-02-11T01:32:25.971Z,11.80
2019-02-11T01:34:53.227Z,11.67
2019-02-11T01:37:20.437Z,8.37
2019-02-11T01:39:47.691Z,12.60
2019-02-11T01:42:14.968Z,10.57
2019-02-11T01:44:42.198Z,10.27
2019-02-11T01:47:09.447Z,11.40
2019-02-11T01:49:36.689Z,15.80
2019-02-11T01:52:03.917Z,14.40
2019-02-11T01:54:31.109Z,16.07
2019-02-11T01:56:58.454Z,14.60
2019-02-11T01:59:25.669Z,18.33
2019-02-11T02:01:52.891Z,11.63
2019-02-11T02:04:20.129Z,12.43
2019-02-11T02:06:47.360Z,12.57
2019-02-11T02:09:14.700Z,10.87
2019-02-11T02:11:41.904Z,13.93
2019-02-11T02:14:09.159Z,16.30
2019-02-11T02:16:36.362Z,19.83
2019-02-11T02:19:03.679Z,16.70
2019-02-11T02:21:30.901Z,13.37
2019-02-11T02:23:58.117Z,12.83
2019-02-11T02:26:25.328Z,14.23
2019-02-11T02:28:52.600Z,14.83
2019-02-11T02:31:19.803Z,14.47
2019-02-11T02:33:47.014Z,11.27
2019-02-11T02:36:14.260Z,17.60
2019-02-11T02:38:41.504Z,16.30
2019-02-11T02:41:08.725Z,19.23
2019-02-11T02:43:35.954Z,16.70
2019-02-11T02:46:03.187Z,13.07
2019-02-11T02:48:30.402Z,16.50
2019-02-11T02:50:57.692Z,14.90
2019-02-11T02:53:24.908Z,15.83
2019-02-11T02:55:52.105Z,15.60
2019-02-11T02:58:19.348Z,14.00
2019-02-11T03:00:46.555Z,15.77
2019-02-11T03:03:13.800Z,15.83
2019-02-11T03:05:41.037Z,14.17
2019-02-11T03:08:08.243Z,12.27
2019-02-11T03:10:35.482Z,13.83
2019-02-11T03:13:02.696Z,13.00
2019-02-11T03:15:29.914Z,10.73
2019-02-11T03:17:57.181Z,17.10
2019-02-11T03:20:24.387Z,13.70
2019-02-11T03:22:51.615Z,14.47
2019-02-11T03:25:18.971Z,15.17
2019-02-11T03:27:46.177Z,16.13
2019-02-11T03:30:13.396Z,9.17
2019-02-11T03:32:40.883Z,10.13
2019-02-11T03:35:08.218Z,11.80
2019-02-11T03:37:35.484Z,12.97
2019-02-11T03:40:02.850Z,12.53
2019-02-11T03:42:30.066Z,13.33
2019-02-11T03:44:57.365Z,10.23
2019-02-11T03:47:24.568Z,12.10
2019-02-11T03:49:51.790Z,13.70
2019-02-11T03:52:19.029Z,19.97
2019-02-11T03:54:46.350Z,10.77
2019-02-11T03:57:13.600Z,12.73
2019-02-11T03:59:40.856Z,14.23
2019-02-11T04:02:08.087Z,14.50
2019-02-11T04:04:35.347Z,7.70
2019-02-11T04:07:02.579Z,7.70
2019-02-11T04:09:29.801Z,9.30
2019-02-11T04:11:57.074Z,14.47
2019-02-11T04:14:25.242Z,11.03
2019-02-11T04:16:52.648Z,13.93
2019-02-11T04:19:19.854Z,15.37
2019-02-11T04:21:56.248Z,15.50
2019-02-11T04:24:23.497Z,14.40
2019-02-11T04:26:50.727Z,12.43
2019-02-11T04:29:18.063Z,15.93
2019-02-11T04:31:45.275Z,15.83
2019-02-11T04:34:12.496Z,11.83
2019-02-11T04:36:39.751Z,16.20
2019-02-11T04:39:07.032Z,15.33
2019-02-11T04:41:34.266Z,13.20
2019-02-11T04:44:01.547Z,13.63
2019-02-11T04:46:28.764Z,10.80
2019-02-11T04:48:56.021Z,18.00
2019-02-11T04:51:23.227Z,20.73
2019-02-11T04:53:50.458Z,15.23
2019-02-11T04:56:17.703Z,12.33
2019-02-11T04:58:44.917Z,20.07
2019-02-11T05:01:12.177Z,15.73
2019-02-11T05:03:39.414Z,18.50
2019-02-11T05:06:06.636Z,18.97
2019-02-11T05:08:33.908Z,13.67
2019-02-11T05:11:01.121Z,13.23
2019-02-11T05:13:28.337Z,18.13
2019-02-11T05:15:55.606Z,16.33
2019-02-11T05:18:22.819Z,12.50
2019-02-11T05:20:50.062Z,11.83
2019-02-11T05:23:17.317Z,15.20
2019-02-11T05:25:44.517Z,16.57
2019-02-11T05:28:11.745Z,13.47
2019-02-11T05:30:38.990Z,17.03
2019-02-11T05:33:06.221Z,9.57
2019-02-11T05:35:33.440Z,9.07
2019-02-11T05:38:00.676Z,9.70
2019-02-11T05:40:27.946Z,11.40
2019-02-11T05:42:55.143Z,13.07
2019-02-11T05:45:22.418Z,14.57
2019-02-11T05:47:49.654Z,16.50
2019-02-11T05:50:16.872Z,15.00
2019-02-11T05:52:44.163Z,18.63
2019-02-11T05:55:11.411Z,15.37
2019-02-11T05:57:38.641Z,11.43
2019-02-11T06:00:08.027Z,13.93
2019-02-11T06:02:35.235Z,10.27
2019-02-11T06:05:02.483Z,15.53
2019-02-11T06:07:29.687Z,13.67
2019-02-11T06:09:56.930Z,11.60
2019-02-11T06:12:24.149Z,19.23
2019-02-11T06:14:51.376Z,21.50
2019-02-11T06:17:18.628Z,15.73
2019-02-11T06:19:45.840Z,15.27
2019-02-11T06:22:13.042Z,16.73
2019-02-11T06:24:40.286Z,20.70
2019-02-11T06:27:07.498Z,18.07
2019-02-11T06:29:34.756Z,16.23
2019-02-11T06:32:01.969Z,15.57
2019-02-11T06:34:29.175Z,18.30
2019-02-11T06:36:56.445Z,14.33
2019-02-11T06:39:23.698Z,16.23
2019-02-11T06:41:50.988Z,19.50
2019-02-11T06:44:18.241Z,16.23
2019-02-11T06:46:45.565Z,22.27
2019-02-11T06:49:12.749Z,20.73
2019-02-11T06:51:39.982Z,22.50
2019-02-11T06:54:07.242Z,22.53
2019-02-11T06:56:34.438Z,18.80
2019-02-11T06:59:01.645Z,22.77
2019-02-11T07:01:28.935Z,15.37
2019-02-11T07:03:56.179Z,16.80
2019-02-11T07:06:23.405Z,18.10
2019-02-11T07:08:50.616Z,16.37
2019-02-11T07:11:17.956Z,17.33
2019-02-11T07:13:45.176Z,21.53
2019-02-11T07:16:12.428Z,20.70
2019-02-11T07:18:39.633Z,20.67
2019-02-11T07:21:06.888Z,14.73
2019-02-11T07:23:34.153Z,19.00
2019-02-11T07:26:01.401Z,17.73
2019-02-11T07:28:28.669Z,15.97
2019-02-11T07:30:55.981Z,13.37
2019-02-11T07:33:23.201Z,13.97
2019-02-11T07:35:50.443Z,13.80
2019-02-11T07:38:17.705Z,15.07
2019-02-11T07:40:44.949Z,14.03
2019-02-11T07:43:31.859Z,26.93
2019-02-11T07:46:03.425Z,15.30
2019-02-11T07:48:30.625Z,11.73
2019-02-11T07:50:57.918Z,18.43
2019-02-11T07:53:25.116Z,16.60
2019-02-11T07:55:52.326Z,21.17
2019-02-11T07:58:19.627Z,17.20
2019-02-11T08:00:46.841Z,14.57
2019-02-11T08:03:14.062Z,18.13
2019-02-11T08:05:41.331Z,13.70
2019-02-11T08:08:08.549Z,10.43
2019-02-11T08:10:35.778Z,11.07
2019-02-11T08:13:03.021Z,15.80
2019-02-11T08:15:38.068Z,11.93
2019-02-11T08:17:59.365Z,13.80
2019-02-11T08:20:26.658Z,9.73
2019-02-11T08:22:53.888Z,12.60
2019-02-11T08:25:21.106Z,13.50
2019-02-11T08:27:48.380Z,11.27
2019-02-11T08:30:15.598Z,13.77
2019-02-11T08:32:42.809Z,15.13
2019-02-11T08:35:10.058Z,18.50
2019-02-11T08:37:37.275Z,17.20
2019-02-11T08:40:04.694Z,18.63
2019-02-11T08:42:31.949Z,21.20
2019-02-11T08:44:59.190Z,17.97
2019-02-11T08:47:26.430Z,18.07
2019-02-11T08:49:53.773Z,17.37
2019-02-11T08:52:20.977Z,16.87
2019-02-11T08:54:48.237Z,17.13
2019-02-11T08:57:15.460Z,16.20
2019-02-11T08:59:43.033Z,24.03
2019-02-11T09:02:10.385Z,19.53
2019-02-11T09:04:37.610Z,14.50
2019-02-11T09:07:04.952Z,20.33
2019-02-11T09:09:32.225Z,19.07
2019-02-11T09:11:59.459Z,19.87
2019-02-11T09:14:26.673Z,19.57
2019-02-11T09:16:53.926Z,18.07
2019-02-11T09:19:21.165Z,17.40
2019-02-11T09:21:48.379Z,20.87
2019-02-11T09:24:15.642Z,21.30
2019-02-11T09:26:42.877Z,15.87
2019-02-11T09:29:10.132Z,21.93
2019-02-11T09:31:37.359Z,23.27
2019-02-11T09:34:04.591Z,24.27
2019-02-11T09:36:31.977Z,25.03
2019-02-11T09:38:59.185Z,21.40
2019-02-11T09:41:26.449Z,17.27
2019-02-11T09:43:53.775Z,21.87
2019-02-11T09:46:21.212Z,18.67
2019-02-11T09:48:48.485Z,16.57
2019-02-11T09:51:15.767Z,11.10
2019-02-11T09:53:42.988Z,19.07
2019-02-11T09:56:10.374Z,16.13
2019-02-11T09:58:38.176Z,14.27
2019-02-11T10:01:05.506Z,17.70
2019-02-11T10:03:32.752Z,12.90
2019-02-11T10:05:59.970Z,13.17
2019-02-11T10:08:27.199Z,18.03
2019-02-11T10:10:54.482Z,15.30
2019-02-11T10:13:21.717Z,15.73
2019-02-11T10:15:48.931Z,12.13
2019-02-11T10:18:16.204Z,15.37
2019-02-11T10:20:43.417Z,20.67
2019-02-11T10:23:10.629Z,16.80
2019-02-11T10:25:37.870Z,15.77
2019-02-11T10:28:08.161Z,17.57
2019-02-11T10:30:35.392Z,19.33
2019-02-11T10:33:02.655Z,10.70
2019-02-11T10:35:29.878Z,17.80
2019-02-11T10:37:57.104Z,14.83
2019-02-11T10:40:24.443Z,11.13
2019-02-11T10:42:51.747Z,14.83
2019-02-11T10:45:19.112Z,16.03
2019-02-11T10:47:46.386Z,17.40
2019-02-11T10:50:14.736Z,16.87
2019-02-11T10:52:41.940Z,21.70
2019-02-11T10:55:10.993Z,15.33
2019-02-11T10:57:38.273Z,15.27
2019-02-11T11:00:07.755Z,14.47
2019-02-11T11:02:34.971Z,19.77
2019-02-11T11:05:02.249Z,12.30
2019-02-11T11:07:29.537Z,16.47
2019-02-11T11:09:56.790Z,19.50
2019-02-11T11:12:24.326Z,16.63
2019-02-11T11:14:51.627Z,15.47
2019-02-11T11:17:21.046Z,12.33
2019-02-11T11:19:48.271Z,17.87
2019-02-11T11:22:15.546Z,16.60
2019-02-11T11:24:42.764Z,22.60
2019-02-11T11:27:10.016Z,21.00
2019-02-11T11:29:37.284Z,21.50
2019-02-11T11:32:04.617Z,22.97
2019-02-11T11:34:31.828Z,18.77
2019-02-11T11:36:59.099Z,17.87
2019-02-11T11:39:26.491Z,17.93
2019-02-11T11:41:53.736Z,20.07
2019-02-11T11:44:20.977Z,27.93
2019-02-11T11:46:48.313Z,19.90
2019-02-11T11:49:15.540Z,20.30
2019-02-11T11:51:42.965Z,16.50
2019-02-11T11:54:10.226Z,22.00
2019-02-11T11:56:37.507Z,21.97
2019-02-11T11:59:04.744Z,16.10
2019-02-11T12:01:32.090Z,18.97
2019-02-11T12:03:59.364Z,24.50
2019-02-11T12:06:26.745Z,22.63
2019-02-11T12:08:54.009Z,15.37
2019-02-11T12:11:21.346Z,19.87
2019-02-11T12:13:48.752Z,17.57
2019-02-11T12:16:16.011Z,19.90
2019-02-11T12:18:43.310Z,21.17
2019-02-11T12:21:10.554Z,12.83
2019-02-11T12:23:37.763Z,21.10
2019-02-11T12:26:05.132Z,19.80
2019-02-11T12:28:32.438Z,22.83
2019-02-11T12:30:59.760Z,18.03
2019-02-11T12:33:26.973Z,22.10
2019-02-11T12:35:54.239Z,15.63
2019-02-11T12:38:21.526Z,19.37
2019-02-11T12:40:48.780Z,21.80
2019-02-11T12:43:16.039Z,25.83
2019-02-11T12:45:43.418Z,17.07
2019-02-11T12:48:10.804Z,20.67
2019-02-11T12:50:38.130Z,23.00
2019-02-11T12:53:05.417Z,19.73
2019-02-11T12:55:32.702Z,24.10
2019-02-11T12:57:59.918Z,26.93
2019-02-11T13:00:27.203Z,21.90
2019-02-11T13:02:54.435Z,18.23
2019-02-11T13:05:26.713Z,27.57
2019-02-11T13:07:50.960Z,17.80
2019-02-11T13:10:19.574Z,23.77
2019-02-11T13:12:46.966Z,20.83
2019-02-11T13:15:33.942Z,22.43
2019-02-11T13:17:43.884Z,22.80
2019-02-11T13:20:12.310Z,14.63
2019-02-11T13:22:39.710Z,14.20
2019-02-11T13:25:09.427Z,17.23
2019-02-11T13:27:36.820Z,20.33
2019-02-11T13:30:05.380Z,18.70
2019-02-11T13:32:32.657Z,18.60
2019-02-11T13:34:59.899Z,16.93
2019-02-11T13:37:27.150Z,17.40
2019-02-11T13:39:54.414Z,16.63
2019-02-11T13:42:22.669Z,19.30
2019-02-11T13:44:50.021Z,14.30
2019-02-11T13:47:17.361Z,20.97
2019-02-11T13:49:46.506Z,19.03
2019-02-11T13:52:13.800Z,12.13
2019-02-11T13:54:41.354Z,21.13
2019-02-11T13:57:08.579Z,19.43
2019-02-11T13:59:35.878Z,15.00
2019-02-11T14:02:03.231Z,14.73
2019-02-11T14:04:30.459Z,17.70
2019-02-11T14:06:57.828Z,18.83
2019-02-11T14:09:25.053Z,17.50
2019-02-11T14:11:52.318Z,17.60
2019-02-11T14:14:27.110Z,17.07
2019-02-11T14:16:55.080Z,13.93
2019-02-11T14:19:22.330Z,15.90
2019-02-11T14:21:49.591Z,12.33
2019-02-11T14:24:16.843Z,15.07
2019-02-11T14:26:44.077Z,18.77
2019-02-11T14:29:11.391Z,14.27
2019-02-11T14:31:38.622Z,18.00
2019-02-11T14:34:10.048Z,20.67
2019-02-11T14:36:35.049Z,21.03
2019-02-11T14:39:04.203Z,11.83
2019-02-11T14:41:31.491Z,21.13
2019-02-11T14:43:58.704Z,19.63
2019-02-11T14:46:25.971Z,18.10
2019-02-11T14:48:53.346Z,11.50
2019-02-11T14:51:20.613Z,11.97
2019-02-11T14:53:47.905Z,14.97
2019-02-11T14:56:15.218Z,11.00
2019-02-11T14:58:42.453Z,12.07
2019-02-11T15:01:09.665Z,11.40
2019-02-11T15:03:36.935Z,12.40
2019-02-11T15:06:04.173Z,15.67
2019-02-11T15:08:31.407Z,16.10
2019-02-11T15:10:58.715Z,13.97
2019-02-11T15:13:25.930Z,16.90
2019-02-11T15:15:53.156Z,19.33
2019-02-11T15:18:20.413Z,25.93
2019-02-11T15:20:47.617Z,21.57
2019-02-11T15:23:14.826Z,22.63
2019-02-11T15:25:42.071Z,20.77
2019-02-11T15:28:09.304Z,13.50
2019-02-11T15:30:36.680Z,18.73
2019-02-11T15:33:03.893Z,14.63
2019-02-11T15:35:31.144Z,19.07
2019-02-11T15:37:58.428Z,17.30
2019-02-11T15:40:25.673Z,15.20
2019-02-11T15:42:52.900Z,12.60
2019-02-11T15:45:20.170Z,15.97
2019-02-11T15:47:47.477Z,16.97
2019-02-11T15:50:15.312Z,12.10
2019-02-11T15:52:42.630Z,10.93
2019-02-11T15:55:11.933Z,12.23
2019-02-11T15:57:39.174Z,13.27
2019-02-11T16:00:08.116Z,8.50
2019-02-11T16:02:35.322Z,8.87
2019-02-11T16:05:02.991Z,14.53
2019-02-11T16:07:30.289Z,9.17
2019-02-11T16:09:57.534Z,10.80
2019-02-11T16:12:24.758Z,9.67
2019-02-11T16:14:52.008Z,9.13
2019-02-11T16:17:21.875Z,9.27
2019-02-11T16:19:49.102Z,8.07
2019-02-11T16:22:16.370Z,15.73
2019-02-11T16:24:43.581Z,12.23
2019-02-11T16:27:10.802Z,11.07
2019-02-11T16:29:38.063Z,7.00
2019-02-11T16:32:05.281Z,10.33
2019-02-11T16:34:32.520Z,10.00
2019-02-11T16:36:59.784Z,15.37
2019-02-11T16:39:27.050Z,11.43
2019-02-11T16:41:54.297Z,10.33
2019-02-11T16:44:21.554Z,11.90
2019-02-11T16:46:48.796Z,13.87
2019-02-11T16:49:16.105Z,11.17
2019-02-11T16:51:43.432Z,10.17
2019-02-11T16:54:10.666Z,12.63
2019-02-11T16:56:37.914Z,11.97
2019-02-11T16:59:05.161Z,16.33
2019-02-11T17:01:32.395Z,23.73
2019-02-11T17:03:59.667Z,17.43
2019-02-11T17:06:26.948Z,16.00
2019-02-11T17:08:54.169Z,12.03
2019-02-11T17:11:21.401Z,16.63
2019-02-11T17:13:48.675Z,13.10
2019-02-11T17:16:15.881Z,13.93
2019-02-11T17:18:43.100Z,16.27
2019-02-11T17:21:10.370Z,12.97
2019-02-11T17:23:37.611Z,11.60
2019-02-11T17:26:04.830Z,7.73
2019-02-11T17:28:32.082Z,8.77
2019-02-11T17:30:59.476Z,8.13
2019-02-11T17:33:26.706Z,6.77
2019-02-11T17:35:53.998Z,8.57
2019-02-11T17:38:21.201Z,10.07
2019-02-11T17:40:48.460Z,6.37
2019-02-11T17:43:15.670Z,9.93
2019-02-11T17:45:43.019Z,10.70
2019-02-11T17:48:10.279Z,10.13
2019-02-11T17:50:37.576Z,9.90
2019-02-11T17:53:05.502Z,11.23
2019-02-11T17:55:32.782Z,13.17
2019-02-11T17:58:00.004Z,9.87
2019-02-11T18:00:31.271Z,11.87
2019-02-11T18:02:58.550Z,9.53
2019-02-11T18:05:25.769Z,9.43
2019-02-11T18:07:52.977Z,14.60
2019-02-11T18:10:20.241Z,15.80
2019-02-11T18:12:47.465Z,10.43
2019-02-11T18:15:14.737Z,11.10
2019-02-11T18:17:41.970Z,6.57
2019-02-11T18:20:09.324Z,8.10
2019-02-11T18:22:36.544Z,5.00
2019-02-11T18:25:04.117Z,7.20
2019-02-11T18:27:31.373Z,9.97
2019-02-11T18:29:58.593Z,5.87
2019-02-11T18:32:25.793Z,9.90
2019-02-11T18:34:53.045Z,8.33
2019-02-11T18:37:20.279Z,9.73
2019-02-11T18:39:47.511Z,15.47
2019-02-11T18:42:14.772Z,11.03
2019-02-11T18:44:42.014Z,8.70
2019-02-11T18:47:09.258Z,13.50
2019-02-11T18:49:36.549Z,15.13
2019-02-11T18:52:03.939Z,14.03
2019-02-11T18:54:31.189Z,9.30
2019-02-11T18:56:58.404Z,11.60
2019-02-11T18:59:25.658Z,13.47
2019-02-11T19:01:52.882Z,19.27
2019-02-11T19:04:20.122Z,14.70
2019-02-11T19:06:47.413Z,14.47
2019-02-11T19:09:16.080Z,14.13
2019-02-11T19:11:43.297Z,8.87
2019-02-11T19:14:10.588Z,12.30
2019-02-11T19:16:37.842Z,12.53
2019-02-11T19:19:05.053Z,11.20
2019-02-11T19:21:32.339Z,12.60
2019-02-11T19:23:59.590Z,12.67
2019-02-11T19:26:26.793Z,8.70
2019-02-11T19:28:54.010Z,10.57
2019-02-11T19:31:21.279Z,7.37
2019-02-11T19:33:48.493Z,9.97
2019-02-11T19:36:15.707Z,11.47
2019-02-11T19:38:42.965Z,8.67
2019-02-11T19:41:10.337Z,10.13
2019-02-11T19:43:37.899Z,9.67
2019-02-11T19:46:05.557Z,8.23
2019-02-11T19:48:33.242Z,10.20
2019-02-11T19:51:00.856Z,14.80
2019-02-11T19:53:28.607Z,12.37
2019-02-11T19:55:56.342Z,14.23
2019-02-11T19:58:23.919Z,18.63
2019-02-11T20:00:51.452Z,11.20
2019-02-11T20:03:19.018Z,9.73
2019-02-11T20:05:46.559Z,11.50
2019-02-11T20:08:14.102Z,14.37
2019-02-11T20:10:41.825Z,11.47
2019-02-11T20:13:09.370Z,8.27
2019-02-11T20:15:37.019Z,11.53
2019-02-11T20:18:04.748Z,13.10
2019-02-11T20:20:32.385Z,11.13
2019-02-11T20:22:59.921Z,9.73
2019-02-11T20:25:27.600Z,10.23
2019-02-11T20:27:55.254Z,14.73
2019-02-11T20:30:24.148Z,16.57
2019-02-11T20:32:51.823Z,16.17
2019-02-11T20:35:19.576Z,11.83
2019-02-11T20:37:47.113Z,12.43
2019-02-11T20:40:16.579Z,10.97
2019-02-11T20:42:44.131Z,11.60
2019-02-11T20:45:14.730Z,14.00
2019-02-11T20:47:42.326Z,14.30
2019-02-11T20:50:12.117Z,9.67
2019-02-11T20:52:39.552Z,8.30
2019-02-11T20:55:08.740Z,12.97
2019-02-11T20:57:36.302Z,13.83
2019-02-11T21:00:04.789Z,10.10
2019-02-11T21:02:32.366Z,7.30
2019-02-11T21:04:59.904Z,11.87
2019-02-11T21:07:27.442Z,8.57
2019-02-11T21:09:55.072Z,9.53
2019-02-11T21:12:22.724Z,4.03
2019-02-11T21:14:50.255Z,8.03
2019-02-11T21:17:17.978Z,5.67
2019-02-11T21:19:45.523Z,7.37
2019-02-11T21:22:13.147Z,7.47
2019-02-11T21:24:40.707Z,8.43
2019-02-11T21:27:08.256Z,9.37
2019-02-11T21:29:35.825Z,7.40
2019-02-11T21:32:06.449Z,8.33
2019-02-11T21:34:33.987Z,7.13
2019-02-11T21:37:01.603Z,10.30
2019-02-11T21:39:29.137Z,7.77
2019-02-11T21:41:56.682Z,9.73
2019-02-11T21:44:24.313Z,10.63
2019-02-11T21:46:51.554Z,11.73
2019-02-11T21:49:19.292Z,9.90
2019-02-11T21:51:46.553Z,14.63
2019-02-11T21:54:13.762Z,9.83
2019-02-11T21:56:41.037Z,9.57
2019-02-11T21:59:08.284Z,7.37
2019-02-11T22:01:35.493Z,4.53
2019-02-11T22:04:02.716Z,6.40
2019-02-11T22:06:30.000Z,5.13
2019-02-11T22:08:57.210Z,5.97
2019-02-11T22:11:24.426Z,3.90
2019-02-11T22:13:51.677Z,4.40
2019-02-11T22:16:18.919Z,6.57
2019-02-11T22:18:46.150Z,7.43
2019-02-11T22:21:13.420Z,9.00
2019-02-11T22:23:40.627Z,5.37
2019-02-11T22:26:07.836Z,6.23
2019-02-11T22:28:35.085Z,8.00
2019-02-11T22:31:02.307Z,6.17
2019-02-11T22:33:29.529Z,8.47
2019-02-11T22:35:56.813Z,8.17
2019-02-11T22:38:24.024Z,10.33
2019-02-11T22:40:51.235Z,10.23
2019-02-11T22:43:18.534Z,9.67
2019-02-11T22:45:45.752Z,11.43
2019-02-11T22:48:12.979Z,10.93
2019-02-11T22:50:43.215Z,4.80
2019-02-11T22:53:09.386Z,7.23
2019-02-11T22:55:36.658Z,8.23
2019-02-11T22:58:03.914Z,3.03
2019-02-11T23:00:48.603Z,3.57
2019-02-11T23:03:16.314Z,3.47
2019-02-11T23:05:43.638Z,4.13
2019-02-11T23:08:11.147Z,2.30
2019-02-11T23:10:38.393Z,3.90
2019-02-11T23:13:05.592Z,3.37
2019-02-11T23:15:32.810Z,3.63
2019-02-11T23:18:00.089Z,5.63
2019-02-11T23:20:27.655Z,2.93
2019-02-11T23:22:54.862Z,4.60
2019-02-11T23:25:22.173Z,5.87
2019-02-11T23:27:49.392Z,5.93
2019-02-11T23:30:16.594Z,9.40
2019-02-11T23:32:43.853Z,8.80
2019-02-11T23:35:11.070Z,9.17
2019-02-11T23:37:38.280Z,8.90
2019-02-11T23:40:05.676Z,13.13
2019-02-11T23:42:32.928Z,8.20
2019-02-11T23:45:00.280Z,10.23
2019-02-11T23:47:27.544Z,9.43
2019-02-11T23:49:54.845Z,10.20
2019-02-11T23:52:22.078Z,8.30
2019-02-11T23:54:49.360Z,11.30
2019-02-11T23:57:16.567Z,12.47
2019-02-11T23:59:43.780Z,6.07
